createdAt,value
2023-04-25T00:02:18.672Z,10.05
2023-04-25T00:04:45.870Z,5.32
2023-04-25T00:07:12.985Z,7.00
2023-04-25T00:09:39.696Z,5.45
2023-04-25T00:12:06.664Z,9.45
2023-04-25T00:14:33.363Z,7.30
2023-04-25T00:17:00.077Z,5.07
2023-04-25T00:19:27.227Z,5.72
2023-04-25T00:21:53.969Z,5.55
2023-04-25T00:24:21.009Z,6.93
2023-04-25T00:26:48.816Z,10.35
2023-04-25T00:29:16.727Z,10.63
2023-04-25T00:31:47.416Z,9.02
2023-04-25T00:34:17.754Z,6.35
2023-04-25T00:36:48.913Z,7.30
2023-04-25T00:39:15.531Z,7.80
2023-04-25T00:41:42.319Z,10.20
2023-04-25T00:44:10.183Z,9.40
2023-04-25T00:46:37.266Z,5.03
2023-04-25T00:49:04.026Z,8.15
2023-04-25T00:51:33.626Z,7.85
2023-04-25T00:54:01.014Z,8.57
2023-04-25T00:56:27.750Z,7.93
2023-04-25T00:58:55.173Z,11.15
2023-04-25T01:01:21.991Z,7.97
2023-04-25T01:03:50.334Z,8.82
2023-04-25T01:06:20.190Z,8.13
2023-04-25T01:08:46.913Z,9.98
2023-04-25T01:11:13.637Z,8.20
2023-04-25T01:13:40.433Z,8.20
2023-04-25T01:16:07.377Z,10.55
2023-04-25T01:18:34.235Z,8.93
2023-04-25T01:21:08.965Z,11.63
2023-04-25T01:23:36.133Z,16.00
2023-04-25T01:26:03.824Z,12.10
2023-04-25T01:28:30.994Z,12.05
2023-04-25T01:30:58.475Z,17.38
2023-04-25T01:33:25.204Z,11.15
2023-04-25T01:35:52.199Z,10.90
2023-04-25T01:38:20.682Z,9.50
2023-04-25T01:40:47.604Z,12.20
2023-04-25T01:43:15.914Z,10.95
2023-04-25T01:45:44.121Z,12.48
2023-04-25T01:48:14.848Z,13.02
2023-04-25T01:50:44.782Z,10.80
2023-04-25T01:53:14.466Z,12.23
2023-04-25T01:55:42.427Z,13.88
2023-04-25T01:58:09.937Z,13.57
2023-04-25T02:00:38.327Z,12.10
2023-04-25T02:03:05.722Z,11.32
2023-04-25T02:05:55.718Z,11.77
2023-04-25T02:08:22.479Z,12.18
2023-04-25T02:10:50.450Z,12.40
2023-04-25T02:13:18.465Z,11.38
2023-04-25T02:18:38.400Z,9.23
2023-04-25T02:21:05.168Z,9.52
2023-04-25T02:23:32.183Z,11.05
2023-04-25T02:25:59.091Z,12.95
2023-04-25T02:28:27.058Z,8.65
2023-04-25T02:30:56.175Z,10.63
2023-04-25T02:33:24.186Z,13.63
2023-04-25T02:35:52.360Z,10.05
2023-04-25T02:38:22.502Z,12.05
2023-04-25T02:40:55.836Z,15.27
2023-04-25T02:43:24.622Z,9.73
2023-04-25T02:45:51.355Z,14.55
2023-04-25T02:48:18.070Z,11.40
2023-04-25T02:50:44.910Z,10.00
2023-04-25T02:53:11.572Z,12.55
2023-04-25T02:55:38.256Z,13.20
2023-04-25T02:58:05.272Z,14.02
2023-04-25T03:00:32.066Z,11.13
2023-04-25T03:02:58.980Z,11.63
2023-04-25T03:05:25.847Z,9.48
2023-04-25T03:07:52.797Z,12.77
2023-04-25T03:10:19.477Z,11.27
2023-04-25T03:12:46.450Z,13.65
2023-04-25T03:15:14.177Z,14.75
2023-04-25T03:17:42.992Z,17.73
2023-04-25T03:20:11.764Z,12.65
2023-04-25T03:22:38.511Z,9.82
2023-04-25T03:25:05.794Z,11.52
2023-04-25T03:27:32.581Z,16.00
2023-04-25T03:29:59.243Z,12.07
2023-04-25T03:32:26.032Z,12.82
2023-04-25T03:34:52.750Z,12.00
2023-04-25T03:37:20.616Z,14.52
2023-04-25T03:39:47.302Z,12.10
2023-04-25T03:42:15.307Z,12.95
2023-04-25T03:44:41.985Z,15.23
2023-04-25T03:47:10.080Z,12.63
2023-04-25T03:49:37.101Z,15.73
2023-04-25T03:52:05.375Z,10.98
2023-04-25T03:54:35.091Z,14.20
2023-04-25T03:57:01.836Z,12.98
2023-04-25T03:59:28.546Z,12.02
2023-04-25T04:01:55.577Z,14.02
2023-04-25T04:04:22.587Z,12.90
2023-04-25T04:06:49.429Z,14.00
2023-04-25T04:09:16.160Z,11.63
2023-04-25T04:11:42.848Z,15.98
2023-04-25T04:14:09.567Z,15.50
2023-04-25T04:16:36.324Z,11.77
2023-04-25T04:19:03.638Z,13.98
2023-04-25T04:21:30.366Z,11.70
2023-04-25T04:23:57.123Z,11.80
2023-04-25T04:26:25.117Z,12.93
2023-04-25T04:29:02.471Z,12.80
2023-04-25T04:31:31.750Z,11.80
2023-04-25T04:33:59.707Z,11.77
2023-04-25T04:36:30.469Z,10.80
2023-04-25T04:39:01.889Z,16.65
2023-04-25T04:41:37.921Z,9.50
2023-04-25T04:44:07.132Z,14.20
2023-04-25T04:46:45.796Z,13.15
2023-04-25T04:49:13.353Z,10.98
2023-04-25T04:51:41.867Z,9.95
2023-04-25T04:54:11.673Z,11.20
2023-04-25T04:56:38.388Z,11.13
2023-04-25T04:59:05.158Z,12.10
2023-04-25T05:01:31.901Z,13.80
2023-04-25T05:03:58.805Z,15.52
2023-04-25T05:06:25.861Z,13.25
2023-04-25T05:08:52.662Z,11.60
2023-04-25T05:11:20.968Z,13.90
2023-04-25T05:13:47.891Z,12.95
2023-04-25T05:16:16.019Z,11.02
2023-04-25T05:18:47.755Z,11.20
2023-04-25T05:21:15.424Z,16.73
2023-04-25T05:23:43.353Z,16.55
2023-04-25T05:26:19.762Z,12.32
2023-04-25T05:28:48.618Z,12.75
2023-04-25T05:31:18.094Z,13.75
2023-04-25T05:33:47.582Z,17.92
2023-04-25T05:36:14.245Z,11.88
2023-04-25T05:38:41.482Z,12.25
2023-04-25T05:41:08.518Z,11.77
2023-04-25T05:43:35.246Z,13.00
2023-04-25T05:46:02.126Z,11.38
2023-04-25T05:48:28.951Z,15.30
2023-04-25T05:50:55.671Z,11.80
2023-04-25T05:53:24.198Z,18.58
2023-04-25T05:55:50.857Z,12.57
2023-04-25T05:58:17.536Z,12.68
2023-04-25T06:00:44.340Z,16.75
2023-04-25T06:03:12.248Z,17.17
2023-04-25T06:05:39.143Z,12.00
2023-04-25T06:08:08.859Z,14.45
2023-04-25T06:10:40.130Z,19.52
2023-04-25T06:13:09.841Z,14.85
2023-04-25T06:15:50.143Z,17.13
2023-04-25T06:18:18.448Z,17.25
2023-04-25T06:20:45.425Z,14.23
2023-04-25T06:23:16.609Z,17.38
2023-04-25T06:25:44.803Z,14.60
2023-04-25T06:28:13.752Z,14.65
2023-04-25T06:30:40.518Z,17.17
2023-04-25T06:33:07.322Z,12.80
2023-04-25T06:35:34.223Z,13.55
2023-04-25T06:38:00.971Z,14.07
2023-04-25T06:40:30.783Z,16.13
2023-04-25T06:42:57.510Z,16.75
2023-04-25T06:45:24.522Z,14.38
2023-04-25T06:47:52.662Z,23.92
2023-04-25T06:50:19.812Z,19.27
2023-04-25T06:52:46.814Z,16.35
2023-04-25T06:55:16.228Z,14.15
2023-04-25T06:57:42.933Z,14.65
2023-04-25T07:00:11.665Z,15.30
2023-04-25T07:02:38.547Z,17.17
2023-04-25T07:05:16.147Z,14.23
2023-04-25T07:07:45.669Z,10.73
2023-04-25T07:10:13.406Z,13.07
2023-04-25T07:12:41.796Z,13.43
2023-04-25T07:15:10.500Z,14.70
2023-04-25T07:17:40.419Z,12.27
2023-04-25T07:20:07.691Z,14.65
2023-04-25T07:22:34.431Z,19.58
2023-04-25T07:25:01.193Z,17.77
2023-04-25T07:27:30.224Z,12.98
2023-04-25T07:29:57.022Z,11.95
2023-04-25T07:32:25.038Z,13.80
2023-04-25T07:34:51.903Z,14.55
2023-04-25T07:37:18.647Z,15.52
2023-04-25T07:39:46.746Z,19.58
2023-04-25T07:42:14.012Z,15.02
2023-04-25T07:44:42.264Z,20.10
2023-04-25T07:47:10.127Z,13.80
2023-04-25T07:49:41.055Z,19.80
2023-04-25T07:52:11.970Z,21.70
2023-04-25T07:54:43.232Z,21.45
2023-04-25T07:57:10.126Z,18.10
2023-04-25T07:59:38.288Z,23.48
2023-04-25T08:02:06.947Z,26.38
2023-04-25T08:04:37.847Z,26.00
2023-04-25T08:07:06.870Z,20.15
2023-04-25T08:09:37.348Z,22.80
2023-04-25T08:12:04.906Z,23.70
2023-04-25T08:14:31.724Z,27.95
2023-04-25T08:16:58.422Z,25.98
2023-04-25T08:19:25.135Z,25.85
2023-04-25T08:21:52.302Z,20.08
2023-04-25T08:24:18.990Z,23.45
2023-04-25T08:26:45.666Z,26.30
2023-04-25T08:29:12.359Z,28.17
2023-04-25T08:31:39.848Z,30.55
2023-04-25T08:34:08.108Z,38.47
2023-04-25T08:36:39.308Z,29.05
2023-04-25T08:39:08.118Z,30.20
2023-04-25T08:41:37.472Z,27.27
2023-04-25T08:44:08.044Z,28.13
2023-04-25T08:46:38.826Z,27.25
2023-04-25T08:49:05.845Z,27.92
2023-04-25T08:51:34.081Z,27.95
2023-04-25T08:56:48.801Z,23.52
2023-04-25T08:59:16.623Z,23.48
2023-04-25T09:01:47.013Z,25.17
2023-04-25T09:04:16.143Z,22.65
2023-04-25T09:06:48.071Z,21.65
2023-04-25T09:09:15.360Z,27.02
2023-04-25T09:11:42.099Z,23.38
2023-04-25T09:14:18.667Z,21.83
2023-04-25T09:17:02.938Z,22.98
2023-04-25T09:22:05.733Z,23.85
2023-04-25T09:24:45.672Z,24.42
2023-04-25T09:27:19.362Z,24.70
2023-04-25T09:29:47.580Z,18.98
2023-04-25T09:32:22.857Z,22.65
2023-04-25T09:34:53.074Z,23.02
2023-04-25T09:37:25.396Z,20.98
2023-04-25T09:40:06.826Z,26.73
2023-04-25T09:42:51.725Z,25.75
2023-04-25T09:45:19.813Z,24.77
2023-04-25T09:47:48.267Z,24.58
2023-04-25T09:50:18.726Z,22.25
2023-04-25T09:52:46.655Z,20.00
2023-04-25T09:55:14.650Z,21.42
2023-04-25T09:57:45.954Z,20.40
2023-04-25T10:00:23.460Z,18.05
2023-04-25T10:02:52.595Z,14.02
2023-04-25T10:05:22.896Z,25.13
2023-04-25T10:07:58.028Z,20.15
2023-04-25T10:10:26.134Z,15.40
2023-04-25T10:12:55.419Z,18.83
2023-04-25T10:15:23.062Z,21.23
2023-04-25T10:17:51.594Z,18.60
2023-04-25T10:20:18.485Z,14.75
2023-04-25T10:22:48.917Z,16.77
2023-04-25T10:25:16.035Z,18.58
2023-04-25T10:27:42.837Z,20.20
2023-04-25T10:30:12.627Z,16.02
2023-04-25T10:32:39.869Z,16.10
2023-04-25T10:35:18.166Z,17.27
2023-04-25T10:38:10.030Z,14.27
2023-04-25T10:40:37.027Z,17.35
2023-04-25T10:43:33.839Z,18.20
2023-04-25T10:46:02.416Z,21.92
2023-04-25T10:48:30.662Z,18.63
2023-04-25T10:51:24.117Z,14.80
2023-04-25T10:53:57.020Z,17.27
2023-04-25T10:56:27.602Z,13.38
2023-04-25T10:59:17.941Z,13.10
2023-04-25T11:01:49.648Z,18.17
2023-04-25T11:04:25.753Z,16.17
2023-04-25T11:07:08.259Z,14.45
2023-04-25T11:09:42.198Z,12.93
2023-04-25T11:12:10.645Z,18.17
2023-04-25T11:17:07.492Z,13.75
2023-04-25T11:19:34.629Z,14.07
2023-04-25T11:22:02.735Z,15.05
2023-04-25T11:24:33.409Z,11.40
2023-04-25T11:27:00.745Z,16.23
2023-04-25T11:29:32.523Z,12.15
2023-04-25T11:31:59.973Z,16.48
2023-04-25T11:34:27.588Z,21.55
2023-04-25T11:36:54.754Z,13.82
2023-04-25T11:39:21.897Z,17.33
2023-04-25T11:41:49.013Z,20.10
2023-04-25T11:44:21.193Z,11.13
2023-04-25T11:46:50.022Z,16.52
2023-04-25T11:49:18.791Z,13.00
2023-04-25T11:51:49.708Z,11.90
2023-04-25T11:54:17.931Z,10.30
2023-04-25T11:56:49.778Z,8.73
2023-04-25T11:59:17.860Z,11.95
2023-04-25T12:01:51.684Z,11.15
2023-04-25T12:04:25.920Z,11.73
2023-04-25T12:06:58.257Z,14.95
2023-04-25T12:09:34.315Z,12.95
2023-04-25T12:12:02.319Z,9.25
2023-04-25T12:14:32.159Z,17.90
2023-04-25T12:17:01.012Z,16.25
2023-04-25T12:19:33.018Z,15.25
2023-04-25T12:22:03.530Z,14.98
2023-04-25T12:24:39.526Z,10.73
2023-04-25T12:27:09.396Z,9.65
2023-04-25T12:29:49.264Z,9.18
2023-04-25T12:32:17.878Z,12.60
2023-04-25T12:34:45.361Z,13.20
2023-04-25T12:37:18.937Z,13.65
2023-04-25T12:39:51.911Z,12.07
2023-04-25T12:42:19.344Z,12.32
2023-04-25T12:44:47.208Z,12.48
2023-04-25T12:47:24.080Z,17.98
2023-04-25T12:49:50.952Z,10.45
2023-04-25T12:52:17.717Z,12.10
2023-04-25T12:54:44.460Z,14.18
2023-04-25T12:57:11.684Z,15.13
2023-04-25T12:59:41.496Z,10.40
2023-04-25T13:02:08.353Z,9.65
2023-04-25T13:04:35.166Z,8.95
2023-04-25T13:07:02.331Z,7.00
2023-04-25T13:09:29.138Z,8.05
2023-04-25T13:11:57.285Z,8.50
2023-04-25T13:14:26.043Z,8.95
2023-04-25T13:16:52.923Z,10.27
2023-04-25T13:19:21.440Z,9.73
2023-04-25T13:21:48.418Z,9.38
2023-04-25T13:24:17.140Z,9.10
2023-04-25T13:26:45.246Z,8.23
2023-04-25T13:29:16.114Z,8.57
2023-04-25T13:31:45.099Z,8.98
2023-04-25T13:34:11.996Z,8.23
2023-04-25T13:36:38.898Z,10.98
2023-04-25T13:39:05.574Z,11.10
2023-04-25T13:41:32.618Z,11.07
2023-04-25T13:43:59.328Z,12.68
2023-04-25T13:46:44.979Z,10.70
2023-04-25T13:49:24.427Z,9.52
2023-04-25T13:51:55.562Z,16.30
2023-04-25T13:54:23.844Z,14.57
2023-04-25T13:56:50.706Z,10.43
2023-04-25T13:59:17.458Z,14.20
2023-04-25T14:01:44.434Z,11.18
2023-04-25T14:04:11.378Z,12.38
2023-04-25T14:06:38.212Z,12.20
2023-04-25T14:09:05.679Z,12.02
2023-04-25T14:11:32.574Z,11.30
2023-04-25T14:14:00.645Z,9.48
2023-04-25T14:16:28.734Z,11.07
2023-04-25T14:19:05.923Z,14.07
2023-04-25T14:21:44.524Z,10.68
2023-04-25T14:24:18.148Z,10.15
2023-04-25T14:26:46.397Z,12.35
2023-04-25T14:29:14.356Z,7.45
2023-04-25T14:31:41.833Z,10.98
2023-04-25T14:34:09.864Z,13.32
2023-04-25T14:36:37.336Z,9.95
2023-04-25T14:39:05.148Z,13.25
2023-04-25T14:41:32.005Z,7.50
2023-04-25T14:43:58.687Z,11.23
2023-04-25T14:46:25.459Z,10.05
2023-04-25T14:48:52.501Z,10.55
2023-04-25T14:51:19.307Z,9.80
2023-04-25T14:53:46.067Z,8.70
2023-04-25T14:56:13.167Z,7.90
2023-04-25T14:58:40.747Z,9.35
2023-04-25T15:01:07.786Z,9.00
2023-04-25T15:03:36.929Z,9.60
2023-04-25T15:06:04.168Z,12.70
2023-04-25T15:08:30.860Z,9.13
2023-04-25T15:10:59.112Z,9.55
2023-04-25T15:13:26.443Z,14.50
2023-04-25T15:15:56.269Z,8.70
2023-04-25T15:18:23.365Z,9.60
2023-04-25T15:20:55.173Z,14.07
2023-04-25T15:23:28.499Z,12.27
2023-04-25T15:25:56.588Z,8.98
2023-04-25T15:28:23.300Z,10.65
2023-04-25T15:30:54.495Z,8.20
2023-04-25T15:33:21.203Z,8.15
2023-04-25T15:35:48.537Z,10.50
2023-04-25T15:38:15.736Z,6.50
2023-04-25T15:40:42.480Z,7.57
2023-04-25T15:43:09.562Z,5.70
2023-04-25T15:45:36.710Z,6.68
2023-04-25T15:48:03.614Z,6.85
2023-04-25T15:50:30.481Z,7.50
2023-04-25T15:52:57.258Z,8.75
2023-04-25T15:55:23.968Z,7.15
2023-04-25T15:57:50.905Z,9.05
2023-04-25T16:00:18.127Z,12.73
2023-04-25T16:02:46.241Z,9.43
2023-04-25T16:05:13.936Z,7.47
2023-04-25T16:07:42.135Z,7.38
2023-04-25T16:10:09.841Z,7.20
2023-04-25T16:12:36.815Z,7.93
2023-04-25T16:15:04.483Z,5.60
2023-04-25T16:17:31.155Z,6.68
2023-04-25T16:19:58.043Z,9.18
2023-04-25T16:22:25.328Z,7.70
2023-04-25T16:24:52.729Z,6.93
2023-04-25T16:27:20.214Z,5.72
2023-04-25T16:29:48.108Z,9.18
2023-04-25T16:32:15.831Z,7.60
2023-04-25T16:34:44.178Z,8.27
2023-04-25T16:37:11.226Z,8.27
2023-04-25T16:39:39.450Z,6.55
2023-04-25T16:42:06.268Z,3.40
2023-04-25T16:44:33.024Z,6.80
2023-04-25T16:46:59.801Z,6.40
2023-04-25T16:49:26.601Z,7.35
2023-04-25T16:51:53.633Z,7.25
2023-04-25T16:54:20.325Z,10.35
2023-04-25T16:56:47.050Z,7.35
2023-04-25T16:59:13.834Z,6.68
2023-04-25T17:01:40.565Z,8.07
2023-04-25T17:04:07.406Z,7.85
2023-04-25T17:06:34.382Z,4.47
2023-04-25T17:09:01.286Z,8.55
2023-04-25T17:11:27.997Z,6.50
2023-04-25T17:13:54.759Z,6.22
2023-04-25T17:16:22.708Z,5.32
2023-04-25T17:18:50.640Z,6.07
2023-04-25T17:21:18.132Z,5.93
2023-04-25T17:23:45.320Z,9.43
2023-04-25T17:26:13.186Z,8.20
2023-04-25T17:28:40.337Z,7.32
2023-04-25T17:31:07.274Z,9.77
2023-04-25T17:33:34.244Z,5.60
2023-04-25T17:36:01.167Z,7.25
2023-04-25T17:38:27.841Z,7.57
2023-04-25T17:40:54.540Z,6.05
2023-04-25T17:43:21.350Z,9.93
2023-04-25T17:45:48.106Z,6.80
2023-04-25T17:48:15.913Z,5.30
2023-04-25T17:50:42.669Z,4.75
2023-04-25T17:53:10.574Z,7.15
2023-04-25T17:55:38.633Z,11.90
2023-04-25T17:58:10.032Z,8.32
2023-04-25T18:00:39.308Z,7.20
2023-04-25T18:03:09.934Z,6.70
2023-04-25T18:05:40.470Z,9.57
2023-04-25T18:08:07.162Z,9.35
2023-04-25T18:10:34.316Z,8.23
2023-04-25T18:13:01.185Z,13.02
2023-04-25T18:15:27.878Z,8.50
2023-04-25T18:17:54.687Z,7.18
2023-04-25T18:20:21.427Z,9.35
2023-04-25T18:22:49.474Z,7.47
2023-04-25T18:25:16.185Z,9.57
2023-04-25T18:27:44.275Z,10.13
2023-04-25T18:30:13.552Z,7.65
2023-04-25T18:32:41.418Z,7.05
2023-04-25T18:35:08.676Z,5.57
2023-04-25T18:37:40.377Z,9.27
2023-04-25T18:40:13.088Z,9.13
2023-04-25T18:42:44.171Z,7.55
2023-04-25T18:45:14.498Z,10.35
2023-04-25T18:47:42.378Z,10.05
2023-04-25T18:50:17.441Z,12.40
2023-04-25T18:52:45.558Z,7.57
2023-04-25T18:55:12.232Z,7.80
2023-04-25T18:57:43.253Z,11.32
2023-04-25T19:00:10.570Z,8.90
2023-04-25T19:02:37.533Z,8.93
2023-04-25T19:05:04.721Z,12.02
2023-04-25T19:07:31.408Z,9.63
2023-04-25T19:09:58.356Z,10.40
2023-04-25T19:12:25.706Z,10.10
2023-04-25T19:14:52.392Z,10.27
2023-04-25T19:17:19.101Z,10.23
2023-04-25T19:19:45.845Z,9.10
2023-04-25T19:22:12.663Z,16.45
2023-04-25T19:24:39.411Z,9.00
2023-04-25T19:27:06.231Z,6.95
2023-04-25T19:29:34.039Z,10.82
2023-04-25T19:32:01.211Z,10.98
2023-04-25T19:34:37.733Z,7.78
2023-04-25T19:37:05.897Z,8.00
2023-04-25T19:39:33.206Z,9.32
2023-04-25T19:42:04.571Z,8.38
2023-04-25T19:44:36.095Z,8.10
2023-04-25T19:47:05.103Z,7.32
2023-04-25T19:49:35.655Z,8.85
2023-04-25T19:52:06.211Z,12.05
2023-04-25T19:54:37.481Z,10.85
2023-04-25T19:57:06.235Z,7.60
2023-04-25T19:59:32.914Z,10.93
2023-04-25T20:02:00.765Z,7.93
2023-04-25T20:04:27.638Z,9.95
2023-04-25T20:06:54.345Z,8.73
2023-04-25T20:09:21.011Z,11.70
2023-04-25T20:11:49.188Z,10.52
2023-04-25T20:14:17.209Z,8.98
2023-04-25T20:16:45.179Z,10.02
2023-04-25T20:19:12.596Z,7.72
2023-04-25T20:21:40.857Z,9.57
2023-04-25T20:24:07.738Z,10.25
2023-04-25T20:26:34.436Z,9.95
2023-04-25T20:29:01.558Z,9.40
2023-04-25T20:31:29.211Z,10.73
2023-04-25T20:33:56.039Z,9.02
2023-04-25T20:36:22.722Z,6.95
2023-04-25T20:38:50.884Z,9.20
2023-04-25T20:41:17.760Z,9.43
2023-04-25T20:43:45.683Z,12.98
2023-04-25T20:46:12.624Z,10.68
2023-04-25T20:48:40.496Z,11.38
2023-04-25T20:51:07.543Z,10.90
2023-04-25T20:53:35.384Z,8.23
2023-04-25T20:56:07.016Z,11.23
2023-04-25T20:58:33.714Z,11.30
2023-04-25T21:01:00.553Z,8.82
2023-04-25T21:03:27.399Z,9.80
2023-04-25T21:05:54.550Z,7.68
2023-04-25T21:08:21.242Z,11.50
2023-04-25T21:10:47.948Z,9.55
2023-04-25T21:13:14.695Z,12.50
2023-04-25T21:15:41.454Z,10.10
2023-04-25T21:18:08.296Z,9.65
2023-04-25T21:20:35.106Z,13.20
2023-04-25T21:23:01.830Z,11.70
2023-04-25T21:25:28.577Z,12.75
2023-04-25T21:27:55.221Z,10.05
2023-04-25T21:30:23.924Z,7.95
2023-04-25T21:32:51.970Z,8.82
2023-04-25T21:35:24.315Z,14.38
2023-04-25T21:37:52.574Z,12.82
2023-04-25T21:40:21.749Z,9.57
2023-04-25T21:42:48.836Z,10.32
2023-04-25T21:45:15.828Z,10.98
2023-04-25T21:47:42.644Z,12.77
2023-04-25T21:50:09.549Z,11.63
2023-04-25T21:52:37.140Z,10.60
2023-04-25T21:55:03.980Z,12.63
2023-04-25T21:57:30.662Z,11.23
2023-04-25T21:59:57.466Z,7.93
2023-04-25T22:02:24.334Z,13.15
2023-04-25T22:04:51.445Z,9.35
2023-04-25T22:07:19.116Z,13.48
2023-04-25T22:09:54.385Z,9.65
2023-04-25T22:12:22.484Z,11.43
2023-04-25T22:14:49.250Z,9.80
2023-04-25T22:17:18.348Z,15.85
2023-04-25T22:19:45.481Z,10.85
2023-04-25T22:22:14.539Z,12.18
2023-04-25T22:24:41.204Z,10.88
2023-04-25T22:27:07.958Z,8.68
2023-04-25T22:29:34.657Z,10.60
2023-04-25T22:32:01.515Z,11.88
2023-04-25T22:34:28.488Z,11.30
2023-04-25T22:36:55.475Z,12.60
2023-04-25T22:39:22.139Z,9.52
2023-04-25T22:41:48.903Z,11.32
2023-04-25T22:44:15.665Z,10.50
2023-04-25T22:46:42.388Z,14.93
2023-04-25T22:49:09.112Z,12.85
2023-04-25T22:51:35.979Z,11.25
2023-04-25T22:54:02.818Z,9.20
2023-04-25T22:56:30.798Z,7.70
2023-04-25T22:58:57.477Z,11.93
2023-04-25T23:01:25.477Z,9.52
2023-04-25T23:03:53.459Z,13.65
2023-04-25T23:06:21.516Z,13.27
2023-04-25T23:08:48.420Z,11.20
2023-04-25T23:11:15.080Z,10.93
2023-04-25T23:13:41.742Z,9.30
2023-04-25T23:16:09.632Z,14.98
2023-04-25T23:18:39.951Z,12.45
2023-04-25T23:21:07.742Z,9.02
2023-04-25T23:23:34.958Z,13.25
2023-04-25T23:26:06.594Z,9.15
2023-04-25T23:28:33.295Z,12.80
2023-04-25T23:31:10.429Z,13.43
2023-04-25T23:33:37.390Z,8.32
2023-04-25T23:36:04.393Z,14.00
2023-04-25T23:38:32.250Z,13.75
2023-04-25T23:40:58.941Z,13.30
2023-04-25T23:43:25.649Z,11.18
2023-04-25T23:45:52.383Z,16.80
2023-04-25T23:48:20.590Z,15.65
2023-04-25T23:50:48.503Z,17.77
2023-04-25T23:53:17.632Z,15.45
2023-04-25T23:55:47.327Z,11.77
2023-04-25T23:58:15.306Z,13.13
